createdAt,value
2023-05-10T00:00:32.579Z,15.5443
2023-05-10T00:01:34.268Z,15.5574
2023-05-10T00:02:35.854Z,15.5139
2023-05-10T00:03:37.501Z,15.4167
2023-05-10T00:04:39.121Z,15.4547
2023-05-10T00:05:40.789Z,15.4524
2023-05-10T00:06:42.377Z,15.4695
2023-05-10T00:07:44.033Z,15.5122
2023-05-10T00:08:45.655Z,15.4843
2023-05-10T00:09:47.305Z,15.4229
2023-05-10T00:10:48.989Z,15.4582
2023-05-10T00:11:50.558Z,15.4598
2023-05-10T00:12:52.239Z,15.4623
2023-05-10T00:13:53.815Z,15.4405
2023-05-10T00:14:55.488Z,15.4617
2023-05-10T00:15:57.156Z,15.5013
2023-05-10T00:16:58.824Z,15.4097
2023-05-10T00:18:00.500Z,15.3939
2023-05-10T00:19:01.990Z,15.4568
2023-05-10T00:20:03.740Z,15.4368
2023-05-10T00:21:05.385Z,15.3746
2023-05-10T00:22:07.009Z,15.3779
2023-05-10T00:23:08.652Z,15.4358
2023-05-10T00:24:10.349Z,15.4003
2023-05-10T00:25:11.977Z,15.3504
2023-05-10T00:26:13.623Z,15.4015
2023-05-10T00:27:15.239Z,15.4066
2023-05-10T00:28:16.862Z,15.3832
2023-05-10T00:29:18.464Z,15.3988
2023-05-10T00:30:20.097Z,15.3925
2023-05-10T00:31:21.744Z,15.4389
2023-05-10T00:32:23.503Z,15.4216
2023-05-10T00:33:25.091Z,15.3325
2023-05-10T00:34:26.697Z,15.3465
2023-05-10T00:35:28.349Z,15.3935
2023-05-10T00:36:29.978Z,15.3982
2023-05-10T00:37:31.664Z,15.3806
2023-05-10T00:38:33.207Z,15.4009
2023-05-10T00:39:34.881Z,15.3327
2023-05-10T00:40:36.595Z,15.3592
2023-05-10T00:41:38.179Z,15.3623
2023-05-10T00:42:39.781Z,15.3015
2023-05-10T00:43:41.458Z,15.3195
2023-05-10T00:44:43.045Z,15.3559
2023-05-10T00:45:44.749Z,15.3594
2023-05-10T00:46:46.348Z,15.2844
2023-05-10T00:47:48.079Z,15.2896
2023-05-10T00:48:49.674Z,15.3027
2023-05-10T00:49:51.249Z,15.3356
2023-05-10T00:50:52.969Z,15.3222
2023-05-10T00:51:55.180Z,15.2877
2023-05-10T00:52:57.127Z,15.3144
2023-05-10T00:53:57.839Z,15.3551
2023-05-10T00:54:59.543Z,15.3144
2023-05-10T00:56:01.161Z,15.2493
2023-05-10T00:57:02.831Z,15.2791
2023-05-10T00:58:04.388Z,15.2844
2023-05-10T00:59:06.018Z,15.2772
2023-05-10T01:00:07.745Z,15.2538
2023-05-10T01:01:09.313Z,15.2203
2023-05-10T01:02:12.752Z,15.2850
2023-05-10T01:03:12.736Z,15.2879
2023-05-10T01:04:14.241Z,15.2160
2023-05-10T01:05:16.048Z,15.1805
2023-05-10T01:06:17.460Z,15.2119
2023-05-10T01:07:19.224Z,15.2018
2023-05-10T01:08:20.755Z,15.2115
2023-05-10T01:09:22.435Z,15.1955
2023-05-10T01:10:24.072Z,15.1959
2023-05-10T01:11:25.702Z,15.2688
2023-05-10T01:12:27.372Z,15.2988
2023-05-10T01:13:29.104Z,15.2696
2023-05-10T01:14:30.622Z,15.2483
2023-05-10T01:15:32.309Z,15.1739
2023-05-10T01:16:33.999Z,15.1187
2023-05-10T01:17:35.803Z,15.1546
2023-05-10T01:18:37.138Z,15.2014
2023-05-10T01:19:38.852Z,15.2600
2023-05-10T01:20:40.469Z,15.2682
2023-05-10T01:21:42.144Z,15.2676
2023-05-10T01:22:43.793Z,15.2300
2023-05-10T01:23:45.406Z,15.1938
2023-05-10T01:24:47.037Z,15.1269
2023-05-10T01:25:48.680Z,15.0063
2023-05-10T01:26:50.317Z,15.0854
2023-05-10T01:27:52.212Z,15.1571
2023-05-10T01:28:53.646Z,15.2288
2023-05-10T01:30:05.907Z,15.2472
2023-05-10T01:30:56.891Z,15.2029
2023-05-10T01:31:58.541Z,15.1431
2023-05-10T01:33:00.250Z,15.1053
2023-05-10T01:34:01.905Z,15.0675
2023-05-10T01:35:03.514Z,15.0190
2023-05-10T01:36:05.247Z,15.0679
2023-05-10T01:37:06.828Z,15.0636
2023-05-10T01:38:08.439Z,15.1291
2023-05-10T01:39:10.057Z,15.1797
2023-05-10T01:40:11.653Z,15.1803
2023-05-10T01:41:13.339Z,15.1404
2023-05-10T01:42:14.948Z,15.0063
2023-05-10T01:43:16.660Z,14.9297
2023-05-10T01:44:18.274Z,14.9683
2023-05-10T01:45:19.905Z,14.9987
2023-05-10T01:46:21.580Z,15.1263
2023-05-10T01:47:23.194Z,15.2029
2023-05-10T01:48:24.871Z,15.1953
2023-05-10T01:49:26.556Z,15.1733
2023-05-10T01:50:28.100Z,15.1552
2023-05-10T01:51:29.750Z,15.0538
2023-05-10T01:52:31.445Z,14.9854
2023-05-10T01:53:33.244Z,14.9726
2023-05-10T01:54:34.653Z,15.0770
2023-05-10T01:55:36.340Z,15.1542
2023-05-10T01:56:37.884Z,15.1476
2023-05-10T01:57:39.524Z,15.0809
2023-05-10T01:58:41.191Z,15.0766
2023-05-10T01:59:42.816Z,15.0149
2023-05-10T02:00:44.435Z,14.9096
2023-05-10T02:01:46.128Z,14.8804
2023-05-10T02:02:47.777Z,14.9977
2023-05-10T02:03:49.448Z,15.0603
2023-05-10T02:04:52.197Z,15.1474
2023-05-10T02:05:53.708Z,15.1450
2023-05-10T02:06:55.328Z,15.1070
2023-05-10T02:07:56.096Z,15.0209
2023-05-10T02:08:58.344Z,14.9102
2023-05-10T02:09:59.484Z,14.8533
2023-05-10T02:11:01.990Z,14.8578
2023-05-10T02:12:03.704Z,14.8915
2023-05-10T02:13:04.261Z,15.0466
2023-05-10T02:14:06.230Z,15.0930
2023-05-10T02:15:07.631Z,15.0815
2023-05-10T02:16:09.261Z,15.0881
2023-05-10T02:17:10.806Z,15.0190
2023-05-10T02:18:12.507Z,14.9264
2023-05-10T02:19:14.141Z,14.8794
2023-05-10T02:20:16.460Z,14.8510
2023-05-10T02:21:17.419Z,14.9054
2023-05-10T02:22:19.081Z,15.0307
2023-05-10T02:23:20.679Z,15.0716
2023-05-10T02:24:22.360Z,15.0151
2023-05-10T02:25:24.043Z,14.9704
2023-05-10T02:26:25.626Z,14.9198
2023-05-10T02:27:27.257Z,14.8370
2023-05-10T02:28:28.945Z,14.7863
2023-05-10T02:29:30.704Z,14.8017
2023-05-10T02:30:32.268Z,14.9198
2023-05-10T02:31:34.015Z,15.0118
2023-05-10T02:32:35.629Z,15.0238
2023-05-10T02:33:37.153Z,15.0227
2023-05-10T02:34:38.907Z,14.9652
2023-05-10T02:35:40.465Z,14.8855
2023-05-10T02:36:42.168Z,14.7960
2023-05-10T02:37:43.806Z,14.7726
2023-05-10T02:38:45.365Z,14.8175
2023-05-10T02:39:47.116Z,14.9878
2023-05-10T02:40:48.702Z,15.1045
2023-05-10T02:41:50.285Z,15.1256
2023-05-10T02:42:51.957Z,15.0907
2023-05-10T02:43:53.632Z,15.0404
2023-05-10T02:44:55.226Z,14.9523
2023-05-10T02:45:57.274Z,14.8586
2023-05-10T02:46:58.478Z,14.7970
2023-05-10T02:48:00.246Z,14.7709
2023-05-10T02:49:01.795Z,14.7769
2023-05-10T02:50:03.426Z,14.9192
2023-05-10T02:51:05.088Z,14.9671
2023-05-10T02:52:06.748Z,14.8898
2023-05-10T02:53:08.333Z,14.9958
2023-05-10T02:54:10.080Z,15.2207
2023-05-10T02:55:11.645Z,15.3904
2023-05-10T02:56:13.355Z,15.5901
2023-05-10T02:57:15.009Z,15.8189
2023-05-10T02:58:16.609Z,15.9939
2023-05-10T02:59:18.213Z,16.1843
2023-05-10T03:00:19.929Z,16.4462
2023-05-10T03:01:21.517Z,16.6598
2023-05-10T03:02:23.190Z,16.6793
2023-05-10T03:03:24.775Z,16.5540
2023-05-10T03:04:26.472Z,16.4261
2023-05-10T03:05:28.100Z,16.3581
2023-05-10T03:06:29.752Z,16.3191
2023-05-10T03:07:31.356Z,16.2776
2023-05-10T03:08:33.041Z,16.2083
2023-05-10T03:09:34.703Z,16.1494
2023-05-10T03:10:36.351Z,16.1089
2023-05-10T03:11:38.090Z,16.1864
2023-05-10T03:12:39.582Z,16.2837
2023-05-10T03:13:41.282Z,16.3729
2023-05-10T03:14:42.858Z,16.4187
2023-05-10T03:15:44.608Z,16.4059
2023-05-10T03:16:46.337Z,16.3443
2023-05-10T03:17:47.795Z,16.3386
2023-05-10T03:18:49.453Z,16.3139
2023-05-10T03:19:51.143Z,16.2636
2023-05-10T03:20:52.800Z,16.2712
2023-05-10T03:21:54.565Z,16.3554
2023-05-10T03:22:56.025Z,16.3618
2023-05-10T03:23:57.689Z,16.4140
2023-05-10T03:24:59.342Z,16.4014
2023-05-10T03:26:01.024Z,16.3454
2023-05-10T03:27:02.629Z,16.3462
2023-05-10T03:28:04.249Z,16.3938
2023-05-10T03:29:05.897Z,16.4101
2023-05-10T03:30:07.488Z,16.4209
2023-05-10T03:31:09.204Z,16.4343
2023-05-10T03:32:10.817Z,16.4255
2023-05-10T03:33:12.422Z,16.4000
2023-05-10T03:34:14.108Z,16.4181
2023-05-10T03:35:15.823Z,16.4392
2023-05-10T03:36:17.487Z,16.4458
2023-05-10T03:37:19.039Z,16.4446
2023-05-10T03:38:20.725Z,16.4142
2023-05-10T03:39:22.378Z,16.4437
2023-05-10T03:40:23.937Z,16.5471
2023-05-10T03:41:25.572Z,16.5604
2023-05-10T03:42:27.331Z,16.5411
2023-05-10T03:43:28.848Z,16.5499
2023-05-10T03:44:30.513Z,16.5713
2023-05-10T03:45:32.218Z,16.5275
2023-05-10T03:46:33.834Z,16.4895
2023-05-10T03:47:35.479Z,16.6103
2023-05-10T03:48:37.096Z,16.6925
2023-05-10T03:49:38.709Z,16.7687
2023-05-10T03:50:40.389Z,16.7652
2023-05-10T03:51:42.110Z,16.6356
2023-05-10T03:52:43.684Z,16.6374
2023-05-10T03:53:45.277Z,16.7056
2023-05-10T03:54:46.932Z,16.5927
2023-05-10T03:55:48.597Z,16.5374
2023-05-10T03:56:50.256Z,16.5165
2023-05-10T03:57:51.918Z,16.4795
2023-05-10T03:58:53.476Z,16.4101
2023-05-10T03:59:55.049Z,16.4027
2023-05-10T04:00:56.700Z,16.3552
2023-05-10T04:01:58.368Z,16.4281
2023-05-10T04:03:00.121Z,16.4351
2023-05-10T04:04:01.624Z,16.4879
2023-05-10T04:05:03.285Z,16.5910
2023-05-10T04:06:04.939Z,16.5662
2023-05-10T04:07:06.531Z,16.5770
2023-05-10T04:08:08.212Z,16.6231
2023-05-10T04:09:09.819Z,16.6116
2023-05-10T04:10:11.499Z,16.6200
2023-05-10T04:11:15.724Z,16.6699
2023-05-10T04:12:14.747Z,16.6434
2023-05-10T04:13:16.552Z,16.6124
2023-05-10T04:14:18.043Z,16.5906
2023-05-10T04:15:19.671Z,16.5890
2023-05-10T04:16:21.323Z,16.6274
2023-05-10T04:17:23.075Z,16.6882
2023-05-10T04:18:24.656Z,16.7634
2023-05-10T04:19:27.273Z,16.7490
2023-05-10T04:20:27.932Z,16.7297
2023-05-10T04:21:29.568Z,16.6839
2023-05-10T04:22:31.175Z,16.6767
2023-05-10T04:23:32.930Z,16.7112
2023-05-10T04:24:34.580Z,16.6559
2023-05-10T04:25:37.256Z,16.6752
2023-05-10T04:26:37.830Z,16.6545
2023-05-10T04:27:39.429Z,16.6457
2023-05-10T04:28:41.227Z,16.6444
2023-05-10T04:29:42.794Z,16.5766
2023-05-10T04:30:44.420Z,16.5370
2023-05-10T04:31:46.066Z,16.5043
2023-05-10T04:32:48.721Z,16.5206
2023-05-10T04:33:49.347Z,16.5812
2023-05-10T04:34:50.972Z,16.6132
2023-05-10T04:35:52.597Z,16.6029
2023-05-10T04:36:54.295Z,16.5838
2023-05-10T04:37:55.833Z,16.5818
2023-05-10T04:38:57.606Z,16.6212
2023-05-10T04:39:59.160Z,16.6541
2023-05-10T04:41:00.797Z,16.6426
2023-05-10T04:42:02.533Z,16.6600
2023-05-10T04:43:04.209Z,16.7297
2023-05-10T04:44:06.003Z,16.6175
2023-05-10T04:45:07.520Z,16.6074
2023-05-10T04:46:09.168Z,16.6473
2023-05-10T04:47:12.676Z,16.6557
2023-05-10T04:48:12.474Z,16.6539
2023-05-10T04:49:14.101Z,16.6432
2023-05-10T04:50:15.969Z,16.6518
2023-05-10T04:51:17.473Z,16.7009
2023-05-10T04:52:18.959Z,16.7369
2023-05-10T04:53:20.684Z,16.8619
2023-05-10T04:54:23.040Z,17.0926
2023-05-10T04:55:23.989Z,17.3576
2023-05-10T04:56:25.574Z,17.7076
2023-05-10T04:57:27.234Z,18.1634
2023-05-10T04:58:28.830Z,18.5237
2023-05-10T04:59:30.938Z,18.6749
2023-05-10T05:00:32.138Z,18.8852
2023-05-10T05:01:33.955Z,19.1646
2023-05-10T05:02:35.483Z,19.2646
2023-05-10T05:03:38.076Z,19.3301
2023-05-10T05:04:38.632Z,19.4086
2023-05-10T05:05:40.349Z,19.6109
2023-05-10T05:06:42.912Z,19.8147
2023-05-10T05:07:43.568Z,19.7824
2023-05-10T05:08:45.280Z,19.7288
2023-05-10T05:09:46.832Z,19.7337
2023-05-10T05:10:48.614Z,19.8714
2023-05-10T05:11:50.173Z,20.0421
2023-05-10T05:12:51.925Z,20.0612
2023-05-10T05:13:53.518Z,19.9599
2023-05-10T05:14:55.081Z,20.0332
2023-05-10T05:15:57.009Z,20.1043
2023-05-10T05:16:58.422Z,20.3126
2023-05-10T05:18:00.110Z,20.5441
2023-05-10T05:19:01.686Z,20.3826
2023-05-10T05:20:03.336Z,20.2442
2023-05-10T05:21:04.954Z,20.2347
2023-05-10T05:22:06.641Z,20.3904
2023-05-10T05:23:08.257Z,20.5348
2023-05-10T05:24:09.906Z,20.5909
2023-05-10T05:25:11.532Z,20.3132
2023-05-10T05:26:13.214Z,20.3795
2023-05-10T05:27:14.849Z,20.4095
2023-05-10T05:28:16.402Z,20.4701
2023-05-10T05:29:18.055Z,20.7287
2023-05-10T05:30:19.804Z,20.7090
2023-05-10T05:31:22.413Z,20.5574
2023-05-10T05:32:22.959Z,20.6718
2023-05-10T05:33:24.611Z,20.6971
2023-05-10T05:34:26.475Z,20.8242
2023-05-10T05:35:28.927Z,21.1235
2023-05-10T05:36:29.543Z,20.9510
2023-05-10T05:37:31.482Z,20.7419
2023-05-10T05:38:33.817Z,20.7429
2023-05-10T05:39:35.331Z,20.7700
2023-05-10T05:40:36.164Z,20.9668
2023-05-10T05:41:38.761Z,21.1439
2023-05-10T05:42:40.491Z,20.9343
2023-05-10T05:43:40.957Z,20.7357
2023-05-10T05:44:42.941Z,20.6340
2023-05-10T05:45:45.381Z,20.6694
2023-05-10T05:46:45.972Z,20.9563
2023-05-10T05:47:48.585Z,20.9173
2023-05-10T05:48:49.297Z,20.8025
2023-05-10T05:49:50.925Z,20.7965
2023-05-10T05:50:52.527Z,20.8721
2023-05-10T05:51:54.462Z,21.0253
2023-05-10T05:52:56.793Z,21.2055
2023-05-10T05:53:57.510Z,21.0808
2023-05-10T05:54:59.091Z,21.1336
2023-05-10T05:56:00.882Z,21.1346
2023-05-10T05:57:02.460Z,21.1609
2023-05-10T05:58:04.062Z,21.3277
2023-05-10T05:59:05.690Z,21.3078
2023-05-10T06:00:07.409Z,21.0227
2023-05-10T06:01:08.972Z,21.0962
2023-05-10T06:02:10.746Z,20.9352
2023-05-10T06:03:13.360Z,21.0621
2023-05-10T06:04:13.974Z,21.3462
2023-05-10T06:05:16.612Z,21.2404
2023-05-10T06:06:17.281Z,21.0403
2023-05-10T06:07:19.857Z,21.0085
2023-05-10T06:08:20.529Z,20.9826
2023-05-10T06:09:22.189Z,21.1254
2023-05-10T06:10:23.802Z,21.3178
2023-05-10T06:11:26.409Z,21.0656
2023-05-10T06:12:27.358Z,20.7632
2023-05-10T06:13:29.936Z,20.7766
2023-05-10T06:14:30.298Z,20.9978
2023-05-10T06:15:32.048Z,21.2605
2023-05-10T06:16:34.713Z,21.2081
2023-05-10T06:17:35.271Z,20.9066
2023-05-10T06:18:36.939Z,20.9797
2023-05-10T06:19:38.526Z,21.0892
2023-05-10T06:20:40.241Z,21.2330
2023-05-10T06:21:41.862Z,21.4010
2023-05-10T06:22:43.620Z,21.0958
2023-05-10T06:23:45.133Z,20.7068
2023-05-10T06:24:46.756Z,20.6441
2023-05-10T06:25:48.451Z,20.9294
2023-05-10T06:26:50.136Z,21.3349
2023-05-10T06:27:53.651Z,21.4526
2023-05-10T06:28:53.403Z,21.1383
2023-05-10T06:30:02.177Z,21.1780
2023-05-10T06:30:56.631Z,21.2373
2023-05-10T06:31:58.458Z,21.3236
2023-05-10T06:32:59.998Z,21.5984
2023-05-10T06:34:01.542Z,21.3821
2023-05-10T06:35:03.200Z,21.4201
2023-05-10T06:36:04.887Z,21.4031
2023-05-10T06:37:06.490Z,21.4279
2023-05-10T06:38:08.260Z,21.6321
2023-05-10T06:39:09.769Z,21.7056
2023-05-10T06:40:11.497Z,21.2782
2023-05-10T06:41:13.114Z,21.1172
2023-05-10T06:42:14.828Z,21.4318
2023-05-10T06:43:17.354Z,21.5087
2023-05-10T06:44:18.059Z,21.7190
2023-05-10T06:45:19.808Z,21.6925
2023-05-10T06:46:21.284Z,21.3378
2023-05-10T06:47:22.995Z,21.4113
2023-05-10T06:48:24.637Z,21.5187
2023-05-10T06:49:26.226Z,21.6190
2023-05-10T06:50:27.790Z,21.7202
2023-05-10T06:51:29.457Z,21.3507
2023-05-10T06:52:31.107Z,21.3638
2023-05-10T06:53:32.770Z,21.4094
2023-05-10T06:54:34.385Z,21.6397
2023-05-10T06:55:36.084Z,21.9016
2023-05-10T06:56:37.664Z,21.9203
2023-05-10T06:57:39.442Z,21.5282
2023-05-10T06:58:42.003Z,21.5882
2023-05-10T06:59:42.665Z,21.6095
2023-05-10T07:00:44.330Z,21.6660
2023-05-10T07:01:45.945Z,21.8562
2023-05-10T07:02:47.569Z,21.7872
2023-05-10T07:03:49.398Z,21.7568
2023-05-10T07:04:50.901Z,21.9577
2023-05-10T07:05:52.455Z,21.7985
2023-05-10T07:06:54.087Z,21.8114
2023-05-10T07:07:55.761Z,22.0267
2023-05-10T07:08:58.385Z,21.8811
2023-05-10T07:09:59.058Z,21.8975
2023-05-10T07:11:00.656Z,21.9914
2023-05-10T07:12:02.350Z,21.9378
2023-05-10T07:13:04.009Z,22.0150
2023-05-10T07:14:05.657Z,22.0294
2023-05-10T07:15:07.286Z,21.6574
2023-05-10T07:16:08.963Z,21.7081
2023-05-10T07:17:10.586Z,21.6985
2023-05-10T07:18:12.210Z,21.7989
2023-05-10T07:19:13.788Z,21.9320
2023-05-10T07:20:15.564Z,21.6013
2023-05-10T07:21:17.106Z,21.3961
2023-05-10T07:22:18.746Z,21.3406
2023-05-10T07:23:20.402Z,21.3710
2023-05-10T07:24:22.396Z,21.6730
2023-05-10T07:25:23.647Z,21.8081
2023-05-10T07:26:25.882Z,21.5651
2023-05-10T07:27:27.796Z,21.3328
2023-05-10T07:28:28.691Z,21.2240
2023-05-10T07:29:30.303Z,21.4818
2023-05-10T07:30:32.021Z,21.8535
2023-05-10T07:31:33.495Z,21.5247
2023-05-10T07:32:35.300Z,21.2496
2023-05-10T07:33:36.809Z,21.2948
2023-05-10T07:34:38.496Z,21.4974
2023-05-10T07:35:40.111Z,21.7913
2023-05-10T07:36:41.691Z,21.7792
2023-05-10T07:37:43.281Z,21.4380
2023-05-10T07:38:45.003Z,21.4058
2023-05-10T07:39:48.420Z,21.5964
2023-05-10T07:40:48.823Z,21.8807
2023-05-10T07:41:49.917Z,21.9585
2023-05-10T07:42:51.517Z,21.7946
2023-05-10T07:43:53.731Z,21.5189
2023-05-10T07:44:54.885Z,21.6311
2023-05-10T07:45:56.544Z,21.8956
2023-05-10T07:46:58.769Z,22.0080
2023-05-10T07:47:59.804Z,21.6192
2023-05-10T07:49:01.405Z,21.3694
2023-05-10T07:50:03.074Z,21.3355
2023-05-10T07:51:04.792Z,21.5495
2023-05-10T07:52:06.405Z,21.9281
2023-05-10T07:53:08.002Z,21.4435
2023-05-10T07:54:09.641Z,21.5401
2023-05-10T07:55:11.338Z,21.7200
2023-05-10T07:56:12.953Z,21.8213
2023-05-10T07:57:14.596Z,21.9271
2023-05-10T07:58:16.236Z,21.7872
2023-05-10T07:59:17.932Z,21.5138
2023-05-10T08:00:19.828Z,21.5035
2023-05-10T08:01:21.619Z,21.2316
2023-05-10T08:02:22.911Z,21.1291
2023-05-10T08:03:24.647Z,20.9352
2023-05-10T08:04:26.269Z,20.3962
2023-05-10T08:05:27.936Z,20.2101
2023-05-10T08:06:29.568Z,20.4130
2023-05-10T08:07:31.233Z,20.5706
2023-05-10T08:08:33.775Z,20.7232
2023-05-10T08:09:34.503Z,20.4081
2023-05-10T08:10:36.194Z,19.9096
2023-05-10T08:11:37.886Z,19.9108
2023-05-10T08:12:39.414Z,20.0987
2023-05-10T08:13:41.059Z,20.3623
2023-05-10T08:14:42.647Z,20.5365
2023-05-10T08:15:44.453Z,20.1532
2023-05-10T08:16:45.986Z,19.7089
2023-05-10T08:17:48.680Z,19.6532
2023-05-10T08:18:49.204Z,19.9574
2023-05-10T08:19:50.892Z,20.4013
2023-05-10T08:20:53.536Z,20.5389
2023-05-10T08:21:54.194Z,20.0916
2023-05-10T08:22:55.804Z,19.7869
2023-05-10T08:23:57.556Z,19.7947
2023-05-10T08:24:59.073Z,20.1016
2023-05-10T08:26:01.017Z,20.5079
2023-05-10T08:27:02.498Z,20.5769
2023-05-10T08:28:04.147Z,20.0554
2023-05-10T08:29:05.730Z,19.6604
2023-05-10T08:30:07.424Z,19.7344
2023-05-10T08:31:09.147Z,20.0262
2023-05-10T08:32:10.720Z,20.3348
2023-05-10T08:33:12.426Z,20.2401
2023-05-10T08:34:14.039Z,19.6569
2023-05-10T08:35:15.852Z,19.4507
2023-05-10T08:36:17.362Z,19.5932
2023-05-10T08:37:19.012Z,19.9517
2023-05-10T08:38:21.533Z,20.3356
2023-05-10T08:39:29.847Z,20.2869
2023-05-10T08:40:23.878Z,19.7970
2023-05-10T08:41:25.511Z,19.5509
2023-05-10T08:42:27.187Z,19.6713
2023-05-10T08:43:29.765Z,19.9911
2023-05-10T08:44:30.431Z,20.2976
2023-05-10T08:45:32.087Z,20.1255
2023-05-10T08:46:33.770Z,19.5939
2023-05-10T08:47:35.365Z,19.3597
2023-05-10T08:48:37.025Z,19.4453
2023-05-10T08:49:38.654Z,19.7639
2023-05-10T08:50:40.592Z,20.0560
2023-05-10T08:51:43.823Z,19.9067
2023-05-10T08:52:43.565Z,19.4334
2023-05-10T08:53:45.492Z,19.1017
2023-05-10T08:54:47.695Z,19.1911
2023-05-10T08:55:48.386Z,19.4881
2023-05-10T08:56:50.192Z,19.7945
2023-05-10T08:57:51.642Z,19.7109
2023-05-10T08:58:53.444Z,19.3307
2023-05-10T08:59:55.002Z,19.0750
2023-05-10T09:00:56.801Z,19.1146
2023-05-10T09:01:58.374Z,19.3291
2023-05-10T09:03:00.038Z,19.6171
2023-05-10T09:04:02.045Z,19.6300
2023-05-10T09:05:03.413Z,19.3018
2023-05-10T09:06:05.063Z,19.1103
2023-05-10T09:07:06.623Z,19.2644
2023-05-10T09:08:08.324Z,19.6255
2023-05-10T09:09:09.852Z,20.0320
2023-05-10T09:10:11.541Z,20.0700
2023-05-10T09:11:13.192Z,19.6177
2023-05-10T09:12:14.810Z,19.4096
2023-05-10T09:13:16.527Z,19.4955
2023-05-10T09:14:18.122Z,19.8083
2023-05-10T09:15:19.831Z,20.1211
2023-05-10T09:16:22.460Z,20.1470
2023-05-10T09:17:23.152Z,19.7514
2023-05-10T09:18:26.018Z,19.4369
2023-05-10T09:19:27.400Z,19.5826
2023-05-10T09:20:27.884Z,19.8913
2023-05-10T09:21:29.505Z,20.1721
2023-05-10T09:22:31.282Z,20.0390
2023-05-10T09:23:32.764Z,19.6471
2023-05-10T09:24:35.416Z,19.4139
2023-05-10T09:25:36.094Z,19.4464
2023-05-10T09:26:37.747Z,19.6740
2023-05-10T09:27:39.345Z,19.9722
2023-05-10T09:28:41.088Z,19.8498
2023-05-10T09:29:42.624Z,19.4515
2023-05-10T09:30:44.340Z,19.1945
2023-05-10T09:31:45.928Z,19.2295
2023-05-10T09:32:47.643Z,19.5107
2023-05-10T09:33:49.214Z,19.8438
2023-05-10T09:34:50.847Z,19.7857
2023-05-10T09:35:52.586Z,19.4552
2023-05-10T09:36:54.121Z,19.2539
2023-05-10T09:37:55.861Z,19.4248
2023-05-10T09:38:57.535Z,19.7381
2023-05-10T09:39:59.076Z,20.0402
2023-05-10T09:41:00.817Z,19.8921
2023-05-10T09:42:02.362Z,19.4449
2023-05-10T09:43:04.037Z,19.2169
2023-05-10T09:44:05.686Z,19.3644
2023-05-10T09:45:07.320Z,19.7220
2023-05-10T09:46:09.003Z,20.0918
2023-05-10T09:47:10.564Z,19.9685
2023-05-10T09:48:12.462Z,19.6678
2023-05-10T09:49:13.853Z,19.4110
2023-05-10T09:50:15.563Z,19.5542
2023-05-10T09:51:17.235Z,19.8884
2023-05-10T09:52:18.834Z,20.1805
2023-05-10T09:53:20.468Z,19.9038
2023-05-10T09:54:22.110Z,19.5493
2023-05-10T09:55:23.765Z,19.3441
2023-05-10T09:56:25.431Z,19.5283
2023-05-10T09:57:27.038Z,19.8504
2023-05-10T09:58:28.733Z,20.0916
2023-05-10T09:59:30.325Z,19.8268
2023-05-10T10:00:31.975Z,19.5694
2023-05-10T10:01:33.705Z,19.4250
2023-05-10T10:02:35.283Z,19.6204
2023-05-10T10:03:36.936Z,19.8964
2023-05-10T10:04:38.545Z,20.0234
2023-05-10T10:05:40.274Z,19.7352
2023-05-10T10:06:41.831Z,19.4217
2023-05-10T10:07:43.476Z,19.3523
2023-05-10T10:08:45.192Z,19.5039
2023-05-10T10:09:46.827Z,19.7278
2023-05-10T10:10:48.437Z,19.7744
2023-05-10T10:11:50.064Z,19.3014
2023-05-10T10:12:51.666Z,19.0705
2023-05-10T10:13:53.362Z,19.0575
2023-05-10T10:14:54.971Z,19.3147
2023-05-10T10:15:56.627Z,19.6547
2023-05-10T10:17:06.787Z,19.8718
2023-05-10T10:18:00.044Z,19.5969
2023-05-10T10:19:01.700Z,19.3012
2023-05-10T10:20:03.266Z,19.2874
2023-05-10T10:21:04.804Z,19.5098
2023-05-10T10:22:06.583Z,19.8810
2023-05-10T10:23:08.134Z,20.2555
2023-05-10T10:24:09.857Z,20.2333
2023-05-10T10:25:11.381Z,20.3549
2023-05-10T10:26:13.106Z,20.1875
2023-05-10T10:27:14.692Z,20.5987
2023-05-10T10:28:16.271Z,21.0662
2023-05-10T10:29:17.991Z,21.2794
2023-05-10T10:30:19.731Z,21.0481
2023-05-10T10:31:21.323Z,20.9888
2023-05-10T10:32:23.022Z,20.9652
2023-05-10T10:33:28.739Z,21.1878
2023-05-10T10:34:26.234Z,21.5643
2023-05-10T10:35:27.890Z,21.5204
2023-05-10T10:36:29.554Z,21.5243
2023-05-10T10:37:31.096Z,21.5541
2023-05-10T10:38:32.773Z,21.4189
2023-05-10T10:39:34.467Z,21.6568
2023-05-10T10:40:36.083Z,21.6348
2023-05-10T10:41:37.717Z,21.1798
2023-05-10T10:42:39.358Z,20.8657
2023-05-10T10:43:40.997Z,20.6305
2023-05-10T10:44:42.614Z,20.5985
2023-05-10T10:45:44.238Z,20.8565
2023-05-10T10:46:45.946Z,21.0806
2023-05-10T10:47:47.642Z,20.8616
2023-05-10T10:48:49.139Z,20.5128
2023-05-10T10:49:51.547Z,20.2487
2023-05-10T10:50:52.611Z,20.4028
2023-05-10T10:51:54.079Z,20.8171
2023-05-10T10:52:55.830Z,21.0243
2023-05-10T10:53:57.402Z,20.6809
2023-05-10T10:54:59.175Z,20.3561
2023-05-10T10:56:00.744Z,20.1372
2023-05-10T10:57:02.348Z,20.3481
2023-05-10T10:58:03.980Z,20.7665
2023-05-10T10:59:05.653Z,20.8729
2023-05-10T11:00:07.295Z,20.4831
2023-05-10T11:01:08.939Z,20.2043
2023-05-10T11:02:10.587Z,20.0727
2023-05-10T11:03:12.246Z,20.4003
2023-05-10T11:04:14.052Z,20.8232
2023-05-10T11:05:15.602Z,20.8039
2023-05-10T11:06:17.152Z,20.4917
2023-05-10T11:07:18.820Z,20.2861
2023-05-10T11:08:20.400Z,20.2807
2023-05-10T11:09:21.982Z,20.6283
2023-05-10T11:10:24.038Z,20.9988
2023-05-10T11:11:25.286Z,20.8501
2023-05-10T11:12:27.105Z,20.5003
2023-05-10T11:13:28.567Z,20.3009
2023-05-10T11:14:30.363Z,20.4118
2023-05-10T11:15:31.988Z,20.8019
2023-05-10T11:16:33.553Z,21.1634
2023-05-10T11:17:35.231Z,20.9627
2023-05-10T11:18:36.916Z,20.6190
2023-05-10T11:19:38.448Z,20.2436
2023-05-10T11:20:40.203Z,20.2744
2023-05-10T11:21:41.718Z,20.6739
2023-05-10T11:22:43.471Z,20.9206
2023-05-10T11:23:45.066Z,20.6755
2023-05-10T11:24:47.860Z,20.2719
2023-05-10T11:25:48.382Z,20.0230
2023-05-10T11:26:50.000Z,20.2460
2023-05-10T11:27:51.603Z,20.6106
2023-05-10T11:28:53.280Z,20.7963
2023-05-10T11:29:54.881Z,20.3662
2023-05-10T11:30:56.625Z,19.8769
2023-05-10T11:31:58.183Z,19.7311
2023-05-10T11:32:59.816Z,19.9798
2023-05-10T11:34:01.464Z,20.2820
2023-05-10T11:35:03.090Z,20.3966
2023-05-10T11:36:04.810Z,19.9593
2023-05-10T11:37:06.354Z,19.5633
2023-05-10T11:38:08.031Z,19.3515
2023-05-10T11:39:09.667Z,19.5086
2023-05-10T11:40:11.386Z,19.8373
2023-05-10T11:41:12.966Z,20.0842
2023-05-10T11:42:15.362Z,19.7438
2023-05-10T11:43:16.209Z,19.3155
2023-05-10T11:44:17.923Z,19.2184
2023-05-10T11:45:19.549Z,19.3981
2023-05-10T11:46:21.307Z,19.7259
2023-05-10T11:47:22.918Z,19.9930
2023-05-10T11:48:24.490Z,19.8251
2023-05-10T11:49:26.159Z,19.5844
2023-05-10T11:50:27.724Z,19.6785
2023-05-10T11:51:29.489Z,20.2134
2023-05-10T11:52:31.086Z,20.9865
2023-05-10T11:53:32.677Z,21.3141
2023-05-10T11:54:34.433Z,21.1282
2023-05-10T11:55:35.939Z,20.9442
2023-05-10T11:56:37.666Z,21.0044
2023-05-10T11:57:39.564Z,21.4690
2023-05-10T11:58:40.930Z,21.8143
2023-05-10T11:59:43.331Z,21.8950
2023-05-10T12:00:44.173Z,21.6107
2023-05-10T12:01:45.903Z,21.6987
2023-05-10T12:02:47.585Z,21.7950
2023-05-10T12:03:49.226Z,22.0926
2023-05-10T12:04:50.873Z,22.3434
2023-05-10T12:05:52.404Z,21.9234
2023-05-10T12:06:54.116Z,21.3355
2023-05-10T12:07:55.736Z,20.9378
2023-05-10T12:08:57.310Z,20.9479
2023-05-10T12:09:59.054Z,21.2034
2023-05-10T12:11:00.609Z,21.3743
2023-05-10T12:12:02.295Z,20.8230
2023-05-10T12:13:03.899Z,20.3181
2023-05-10T12:14:05.638Z,20.3118
2023-05-10T12:15:07.213Z,20.6513
2023-05-10T12:16:08.805Z,21.0822
2023-05-10T12:17:10.470Z,21.0237
2023-05-10T12:18:12.192Z,20.3113
2023-05-10T12:19:13.768Z,19.9205
2023-05-10T12:20:15.612Z,19.9872
2023-05-10T12:21:17.026Z,20.3988
2023-05-10T12:22:18.717Z,20.6918
2023-05-10T12:23:20.315Z,20.5445
2023-05-10T12:24:21.943Z,20.1154
2023-05-10T12:25:23.629Z,19.8416